createdAt,value
2019-05-15T00:01:19.413Z,1.80
2019-05-15T00:03:49.233Z,1.97
2019-05-15T00:06:19.106Z,2.10
2019-05-15T00:08:48.115Z,1.77
2019-05-15T00:11:19.017Z,2.00
2019-05-15T00:13:48.337Z,1.93
2019-05-15T00:16:18.036Z,1.77
2019-05-15T00:18:48.255Z,2.20
2019-05-15T00:21:17.981Z,1.70
2019-05-15T00:23:49.258Z,1.83
2019-05-15T00:26:18.168Z,1.70
2019-05-15T00:28:47.975Z,1.70
2019-05-15T00:31:18.644Z,1.90
2019-05-15T00:33:48.266Z,1.70
2019-05-15T00:36:19.006Z,2.10
2019-05-15T00:38:48.354Z,1.90
2019-05-15T00:41:18.460Z,1.83
2019-05-15T00:43:49.325Z,1.70
2019-05-15T00:46:18.343Z,1.60
2019-05-15T00:48:48.775Z,1.50
2019-05-15T00:51:19.575Z,1.43
2019-05-15T00:53:48.295Z,1.60
2019-05-15T00:56:19.251Z,1.47
2019-05-15T00:58:48.172Z,1.50
2019-05-15T01:01:19.083Z,1.50
2019-05-15T01:03:49.173Z,1.40
2019-05-15T01:06:19.066Z,2.00
2019-05-15T01:08:48.274Z,1.70
2019-05-15T01:11:19.028Z,1.67
2019-05-15T01:13:48.194Z,1.60
2019-05-15T01:16:18.600Z,1.60
2019-05-15T01:18:49.140Z,1.60
2019-05-15T01:21:18.755Z,1.80
2019-05-15T01:23:48.426Z,1.77
2019-05-15T01:26:18.937Z,1.57
2019-05-15T01:28:49.503Z,2.00
2019-05-15T01:31:19.087Z,1.90
2019-05-15T01:33:48.127Z,1.83
2019-05-15T01:36:19.116Z,1.60
2019-05-15T01:38:48.028Z,1.57
2019-05-15T01:41:18.725Z,1.63
2019-05-15T01:43:48.931Z,1.63
2019-05-15T01:46:19.083Z,1.77
2019-05-15T01:48:49.309Z,1.67
2019-05-15T01:51:18.463Z,2.03
2019-05-15T01:53:48.046Z,1.90
2019-05-15T01:56:18.863Z,1.50
2019-05-15T01:58:48.695Z,1.70
2019-05-15T02:01:19.247Z,1.77
2019-05-15T02:03:49.308Z,1.80
2019-05-15T02:06:18.958Z,1.73
2019-05-15T02:08:49.748Z,1.90
2019-05-15T02:11:18.310Z,1.73
2019-05-15T02:13:47.995Z,1.90
2019-05-15T02:16:18.997Z,1.73
2019-05-15T02:18:48.924Z,1.77
2019-05-15T02:21:18.255Z,1.70
2019-05-15T02:23:48.172Z,1.90
2019-05-15T02:26:18.957Z,1.90
2019-05-15T02:28:48.777Z,2.00
2019-05-15T02:31:19.598Z,1.63
2019-05-15T02:33:49.803Z,1.70
2019-05-15T02:36:20.558Z,1.70
2019-05-15T02:38:48.929Z,2.80
2019-05-15T02:41:19.474Z,2.13
2019-05-15T02:43:50.124Z,1.77
2019-05-15T02:46:19.397Z,1.83
2019-05-15T02:48:48.930Z,1.83
2019-05-15T02:51:19.330Z,1.87
2019-05-15T02:53:50.087Z,1.87
2019-05-15T02:56:20.279Z,1.80
2019-05-15T02:58:49.294Z,1.90
2019-05-15T03:01:18.914Z,2.03
2019-05-15T03:03:49.762Z,1.70
2019-05-15T03:06:19.339Z,1.93
2019-05-15T03:08:49.648Z,1.70
2019-05-15T03:11:20.049Z,1.80
2019-05-15T03:13:50.353Z,1.90
2019-05-15T03:16:19.638Z,1.90
2019-05-15T03:18:50.475Z,1.70
2019-05-15T03:21:18.869Z,2.00
2019-05-15T03:23:50.619Z,1.80
2019-05-15T03:26:19.810Z,1.90
2019-05-15T03:28:49.566Z,2.13
2019-05-15T03:31:40.915Z,2.17
2019-05-15T03:33:53.745Z,2.07
2019-05-15T03:36:22.970Z,1.67
2019-05-15T03:38:50.035Z,1.97
2019-05-15T03:41:19.637Z,1.90
2019-05-15T03:43:49.625Z,1.87
2019-05-15T03:46:19.975Z,1.90
2019-05-15T03:48:48.974Z,2.10
2019-05-15T03:51:19.850Z,1.70
2019-05-15T03:53:49.723Z,1.90
2019-05-15T03:56:19.071Z,1.73
2019-05-15T03:58:49.276Z,1.83
2019-05-15T04:01:29.896Z,2.00
2019-05-15T04:03:49.638Z,2.00
2019-05-15T04:06:19.260Z,1.70
2019-05-15T04:08:49.584Z,1.73
2019-05-15T04:11:20.381Z,1.70
2019-05-15T04:13:50.011Z,2.10
2019-05-15T04:16:19.266Z,1.70
2019-05-15T04:18:49.026Z,2.17
2019-05-15T04:21:19.960Z,2.00
2019-05-15T04:23:49.929Z,1.87
2019-05-15T04:26:19.622Z,1.80
2019-05-15T04:28:49.458Z,2.20
2019-05-15T04:31:19.355Z,1.80
2019-05-15T04:33:49.167Z,1.83
2019-05-15T04:36:19.174Z,2.00
2019-05-15T04:38:49.830Z,1.57
2019-05-15T04:41:19.695Z,1.87
2019-05-15T04:43:49.565Z,2.07
2019-05-15T04:46:19.708Z,1.77
2019-05-15T04:48:50.163Z,1.73
2019-05-15T04:51:19.105Z,1.90
2019-05-15T04:53:50.346Z,1.63
2019-05-15T04:56:19.278Z,2.30
2019-05-15T04:58:50.781Z,1.80
2019-05-15T05:01:20.027Z,1.53
2019-05-15T05:03:49.703Z,1.90
2019-05-15T05:06:19.416Z,1.80
2019-05-15T05:08:50.222Z,1.90
2019-05-15T05:11:19.837Z,1.87
2019-05-15T05:13:49.201Z,2.07
2019-05-15T05:16:19.181Z,1.60
2019-05-15T05:18:48.829Z,1.90
2019-05-15T05:21:18.429Z,1.80
2019-05-15T05:23:48.363Z,1.63
2019-05-15T05:26:18.499Z,2.17
2019-05-15T05:28:48.663Z,1.90
2019-05-15T05:31:19.133Z,1.60
2019-05-15T05:33:48.630Z,1.70
2019-05-15T05:36:18.509Z,1.50
2019-05-15T05:38:49.382Z,1.53
2019-05-15T05:41:18.958Z,1.47
2019-05-15T05:43:48.745Z,1.57
2019-05-15T05:46:18.397Z,2.17
2019-05-15T05:48:48.895Z,1.27
2019-05-15T05:51:19.063Z,1.60
2019-05-15T05:53:48.083Z,1.53
2019-05-15T05:56:18.145Z,1.50
2019-05-15T05:58:49.102Z,1.77
2019-05-15T06:01:18.775Z,1.87
2019-05-15T06:03:49.131Z,1.70
2019-05-15T06:06:18.616Z,1.60
2019-05-15T06:08:48.165Z,1.70
2019-05-15T06:11:18.437Z,1.60
2019-05-15T06:13:51.873Z,1.60
2019-05-15T06:16:19.027Z,1.82
2019-05-15T06:18:49.183Z,1.47
2019-05-15T06:21:18.548Z,1.60
2019-05-15T06:23:54.539Z,1.60
2019-05-15T06:26:19.606Z,1.80
2019-05-15T06:28:49.141Z,1.32
2019-05-15T06:31:19.016Z,1.42
2019-05-15T06:33:49.081Z,1.40
2019-05-15T06:36:18.461Z,1.30
2019-05-15T06:38:48.325Z,1.70
2019-05-15T06:41:18.289Z,1.57
2019-05-15T06:43:48.423Z,1.30
2019-05-15T06:46:18.727Z,1.40
2019-05-15T06:48:48.670Z,1.50
2019-05-15T06:51:18.306Z,1.52
2019-05-15T06:53:49.221Z,1.40
2019-05-15T06:56:18.927Z,1.50
2019-05-15T06:58:48.711Z,1.42
2019-05-15T07:01:18.940Z,1.30
2019-05-15T07:03:48.588Z,1.30
2019-05-15T07:06:18.267Z,1.40
2019-05-15T07:08:49.636Z,1.22
2019-05-15T07:11:19.206Z,1.10
2019-05-15T07:13:48.777Z,1.40
2019-05-15T07:16:18.289Z,1.00
2019-05-15T07:18:48.589Z,1.20
2019-05-15T07:21:20.428Z,1.12
2019-05-15T07:23:49.668Z,0.95
2019-05-15T07:26:18.955Z,1.10
2019-05-15T07:28:48.651Z,1.50
2019-05-15T07:31:18.128Z,1.27
2019-05-15T07:33:49.130Z,1.42
2019-05-15T07:36:19.266Z,1.20
2019-05-15T07:38:48.807Z,0.85
2019-05-15T07:41:18.469Z,1.42
2019-05-15T07:43:49.392Z,1.15
2019-05-15T07:46:18.811Z,1.00
2019-05-15T07:48:49.086Z,1.17
2019-05-15T07:51:18.528Z,1.30
2019-05-15T07:53:48.915Z,1.00
2019-05-15T07:56:18.440Z,0.98
2019-05-15T07:58:52.567Z,1.00
2019-05-15T08:01:18.677Z,1.10
2019-05-15T08:03:58.704Z,1.20
2019-05-15T08:06:18.709Z,1.10
2019-05-15T08:08:48.679Z,0.90
2019-05-15T08:11:23.945Z,0.90
2019-05-15T08:13:48.960Z,0.82
2019-05-15T08:16:18.269Z,0.70
2019-05-15T08:18:48.421Z,0.80
2019-05-15T08:21:18.512Z,0.60
2019-05-15T08:23:48.489Z,1.00
2019-05-15T08:26:17.950Z,0.90
2019-05-15T08:28:48.794Z,1.07
2019-05-15T08:31:18.516Z,1.00
2019-05-15T08:33:48.190Z,1.07
2019-05-15T08:36:18.331Z,1.00
2019-05-15T08:38:48.658Z,0.90
2019-05-15T08:41:18.729Z,0.90
2019-05-15T08:43:48.797Z,0.70
2019-05-15T08:46:18.645Z,0.70
2019-05-15T08:48:49.183Z,0.78
2019-05-15T08:51:19.278Z,0.80
2019-05-15T08:53:48.990Z,0.78
2019-05-15T08:56:19.425Z,0.70
2019-05-15T08:58:48.937Z,0.80
2019-05-15T09:01:18.324Z,0.93
2019-05-15T09:03:48.915Z,0.82
2019-05-15T09:06:22.725Z,1.00
2019-05-15T09:08:49.868Z,0.70
2019-05-15T09:11:19.363Z,0.80
2019-05-15T09:13:53.957Z,0.90
2019-05-15T09:16:19.398Z,1.12
2019-05-15T09:18:48.759Z,0.90
2019-05-15T09:21:19.129Z,1.40
2019-05-15T09:23:49.812Z,1.20
2019-05-15T09:26:19.613Z,0.95
2019-05-15T09:28:49.539Z,1.20
2019-05-15T09:31:19.403Z,0.98
2019-05-15T09:33:49.343Z,1.00
2019-05-15T09:36:20.144Z,1.10
2019-05-15T09:38:49.574Z,1.00
2019-05-15T09:41:18.838Z,1.02
2019-05-15T09:43:48.627Z,1.00
2019-05-15T09:46:18.473Z,1.27
2019-05-15T09:48:51.560Z,1.10
2019-05-15T09:51:19.135Z,1.12
2019-05-15T09:53:48.596Z,1.10
2019-05-15T09:56:18.659Z,1.98
2019-05-15T09:58:48.965Z,1.92
2019-05-15T10:01:19.658Z,1.20
2019-05-15T10:03:49.031Z,1.32
2019-05-15T10:06:20.638Z,1.25
2019-05-15T10:08:49.276Z,1.12
2019-05-15T10:11:19.691Z,1.10
2019-05-15T10:13:49.161Z,1.37
2019-05-15T10:16:19.936Z,1.50
2019-05-15T10:18:50.924Z,1.05
2019-05-15T10:21:19.995Z,1.10
2019-05-15T10:23:49.622Z,1.50
2019-05-15T10:26:19.442Z,1.77
2019-05-15T10:28:49.546Z,1.30
2019-05-15T10:31:19.463Z,1.30
2019-05-15T10:33:49.285Z,1.30
2019-05-15T10:36:19.089Z,1.27
2019-05-15T10:38:49.035Z,1.30
2019-05-15T10:41:18.921Z,2.80
2019-05-15T10:43:55.828Z,1.37
2019-05-15T10:46:19.261Z,1.50
2019-05-15T10:48:49.350Z,1.20
2019-05-15T10:51:19.548Z,1.20
2019-05-15T10:53:49.106Z,1.07
2019-05-15T10:56:18.688Z,1.27
2019-05-15T10:58:50.442Z,1.07
2019-05-15T11:01:19.346Z,1.30
2019-05-15T11:03:49.565Z,1.22
2019-05-15T11:06:18.993Z,1.02
2019-05-15T11:08:51.100Z,1.20
2019-05-15T11:11:18.953Z,1.10
2019-05-15T11:13:48.027Z,1.30
2019-05-15T11:16:20.802Z,1.00
2019-05-15T11:18:48.300Z,0.95
2019-05-15T11:21:19.074Z,1.15
2019-05-15T11:23:49.363Z,1.20
2019-05-15T11:26:19.480Z,1.00
2019-05-15T11:28:49.798Z,0.98
2019-05-15T11:31:19.315Z,1.10
2019-05-15T11:33:49.312Z,1.20
2019-05-15T11:36:18.748Z,1.10
2019-05-15T11:38:48.584Z,1.20
2019-05-15T11:41:19.154Z,1.00
2019-05-15T11:43:49.514Z,1.20
2019-05-15T11:46:18.995Z,1.47
2019-05-15T11:48:49.857Z,0.90
2019-05-15T11:51:19.254Z,1.20
2019-05-15T11:53:49.216Z,1.05
2019-05-15T11:56:19.063Z,1.35
2019-05-15T11:58:48.378Z,1.42
2019-05-15T12:01:19.236Z,1.10
2019-05-15T12:03:48.335Z,1.15
2019-05-15T12:06:21.912Z,1.20
2019-05-15T12:08:48.454Z,1.60
2019-05-15T12:11:32.086Z,1.20
2019-05-15T12:13:48.535Z,1.15
2019-05-15T12:16:17.655Z,1.22
2019-05-15T12:18:48.337Z,0.98
2019-05-15T12:21:19.995Z,1.10
2019-05-15T12:23:48.850Z,1.25
2019-05-15T12:26:18.177Z,1.10
2019-05-15T12:28:48.973Z,1.30
2019-05-15T12:31:24.297Z,1.32
2019-05-15T12:33:49.165Z,1.05
2019-05-15T12:36:45.475Z,0.93
2019-05-15T12:38:50.332Z,1.30
2019-05-15T13:01:26.268Z,1.27
2019-05-15T13:03:57.833Z,1.10
2019-05-15T13:06:28.506Z,1.20
2019-05-15T13:08:59.489Z,1.20
2019-05-15T13:11:28.561Z,1.20
2019-05-15T13:13:59.098Z,1.47
2019-05-15T13:16:28.392Z,1.10
2019-05-15T13:18:58.820Z,1.12
2019-05-15T13:21:29.615Z,1.27
2019-05-15T13:23:58.862Z,1.15
2019-05-15T13:26:28.034Z,1.10
2019-05-15T13:28:58.357Z,1.12
2019-05-15T13:31:28.400Z,1.20
2019-05-15T13:33:58.807Z,1.20
2019-05-15T13:36:28.802Z,1.50
2019-05-15T13:38:58.194Z,1.10
2019-05-15T13:41:28.281Z,1.12
2019-05-15T13:43:58.410Z,1.20
2019-05-15T13:46:29.123Z,1.32
2019-05-15T13:48:59.447Z,1.10
2019-05-15T13:51:29.232Z,1.35
2019-05-15T13:53:58.448Z,1.32
2019-05-15T13:56:28.983Z,1.37
2019-05-15T13:58:58.842Z,1.02
2019-05-15T14:01:28.613Z,1.40
2019-05-15T14:03:58.885Z,1.42
2019-05-15T14:06:28.786Z,1.20
2019-05-15T14:08:58.241Z,1.30
2019-05-15T14:11:30.888Z,1.50
2019-05-15T14:14:00.930Z,1.17
2019-05-15T14:16:30.019Z,1.50
2019-05-15T14:18:59.254Z,1.15
2019-05-15T14:21:29.550Z,1.50
2019-05-15T14:24:01.409Z,1.30
2019-05-15T14:26:29.515Z,1.20
2019-05-15T14:28:58.785Z,1.32
2019-05-15T14:31:28.514Z,1.30
2019-05-15T14:33:58.061Z,1.20
2019-05-15T14:36:28.740Z,1.50
2019-05-15T14:38:58.751Z,1.30
2019-05-15T14:41:29.438Z,1.72
2019-05-15T14:44:13.091Z,1.30
2019-05-15T14:46:29.466Z,1.10
2019-05-15T14:48:58.617Z,1.30
2019-05-15T14:51:28.487Z,1.47
2019-05-15T14:53:58.376Z,1.40
2019-05-15T14:56:27.689Z,1.15
2019-05-15T14:58:58.595Z,1.12
2019-05-15T15:01:27.825Z,1.70
2019-05-15T15:03:58.147Z,1.37
2019-05-15T15:06:27.417Z,1.25
2019-05-15T15:08:59.088Z,1.12
2019-05-15T15:11:28.484Z,1.20
2019-05-15T15:13:57.973Z,1.30
2019-05-15T15:16:29.190Z,1.30
2019-05-15T15:18:58.488Z,1.32
2019-05-15T15:21:29.298Z,1.25
2019-05-15T15:23:58.842Z,1.47
2019-05-15T15:26:28.140Z,1.40
2019-05-15T15:28:58.988Z,1.35
2019-05-15T15:31:28.933Z,1.30
2019-05-15T15:33:58.275Z,1.25
2019-05-15T15:36:28.502Z,1.10
2019-05-15T15:38:58.807Z,1.50
2019-05-15T15:41:28.680Z,1.17
2019-05-15T15:43:58.648Z,1.57
2019-05-15T15:46:28.740Z,1.30
2019-05-15T15:48:59.248Z,1.25
2019-05-15T15:51:28.718Z,1.55
2019-05-15T15:53:57.862Z,1.30
2019-05-15T15:56:29.119Z,2.58
2019-05-15T15:58:59.441Z,2.52
2019-05-15T16:01:31.361Z,2.37
2019-05-15T16:03:59.533Z,1.42
2019-05-15T16:06:29.340Z,1.50
2019-05-15T16:08:59.594Z,1.55
2019-05-15T16:11:28.957Z,2.85
2019-05-15T16:13:58.739Z,1.72
2019-05-15T16:16:28.554Z,1.70
2019-05-15T16:18:57.766Z,2.08
2019-05-15T16:21:28.778Z,2.08
2019-05-15T16:23:58.326Z,1.60
2019-05-15T16:26:29.011Z,1.65
2019-05-15T16:29:01.716Z,1.42
2019-05-15T16:31:29.292Z,1.60
2019-05-15T16:33:58.914Z,1.82
2019-05-15T16:36:28.000Z,3.50
2019-05-15T16:39:05.173Z,2.58
2019-05-15T16:41:28.987Z,2.77
2019-05-15T16:43:58.334Z,2.02
2019-05-15T16:46:28.219Z,1.80
2019-05-15T16:48:58.374Z,3.50
2019-05-15T16:51:29.508Z,3.67
2019-05-15T16:53:59.138Z,2.25
2019-05-15T16:56:28.494Z,1.90
2019-05-15T16:58:59.718Z,2.37
2019-05-15T17:01:29.049Z,1.80
2019-05-15T17:03:58.547Z,1.27
2019-05-15T17:06:28.224Z,1.60
2019-05-15T17:08:57.932Z,1.25
2019-05-15T17:11:28.918Z,2.10
2019-05-15T17:13:59.197Z,1.90
2019-05-15T17:16:28.660Z,1.50
2019-05-15T17:18:58.274Z,1.62
2019-05-15T17:21:28.491Z,1.30
2019-05-15T17:23:58.308Z,2.05
2019-05-15T17:26:28.721Z,3.60
2019-05-15T17:28:58.354Z,2.20
2019-05-15T17:31:28.633Z,1.60
2019-05-15T17:33:58.335Z,1.12
2019-05-15T17:36:31.828Z,1.40
2019-05-15T17:38:58.697Z,1.40
2019-05-15T17:41:28.595Z,1.50
2019-05-15T17:43:58.122Z,1.12
2019-05-15T17:46:29.611Z,1.45
2019-05-15T17:49:06.767Z,1.37
2019-05-15T17:51:28.909Z,1.30
2019-05-15T17:53:58.324Z,1.40
2019-05-15T17:56:28.351Z,1.30
2019-05-15T17:58:58.198Z,1.55
2019-05-15T18:01:28.237Z,1.72
2019-05-15T18:03:59.418Z,1.40
2019-05-15T18:06:29.058Z,1.40
2019-05-15T18:08:59.284Z,1.90
2019-05-15T18:11:28.605Z,1.90
2019-05-15T18:13:58.260Z,1.87
2019-05-15T18:16:27.565Z,2.20
2019-05-15T18:18:58.598Z,2.30
2019-05-15T18:21:28.927Z,1.70
2019-05-15T18:23:58.786Z,2.62
2019-05-15T18:26:28.235Z,2.33
2019-05-15T18:28:58.451Z,1.98
2019-05-15T18:31:28.592Z,2.00
2019-05-15T18:33:59.621Z,1.80
2019-05-15T18:36:28.767Z,1.92
2019-05-15T18:38:58.861Z,2.00
2019-05-15T18:41:28.563Z,2.20
2019-05-15T18:43:57.984Z,2.30
2019-05-15T18:46:28.891Z,2.10
2019-05-15T18:48:58.173Z,1.90
2019-05-15T18:51:28.010Z,1.80
2019-05-15T18:53:58.808Z,2.08
2019-05-15T18:56:29.674Z,2.10
2019-05-15T18:58:59.073Z,2.05
2019-05-15T19:01:28.527Z,2.00
2019-05-15T19:03:58.189Z,1.92
2019-05-15T19:06:29.175Z,1.90
2019-05-15T19:08:58.651Z,2.17
2019-05-15T19:11:28.846Z,1.92
2019-05-15T19:13:58.957Z,1.87
2019-05-15T19:16:31.482Z,1.52
2019-05-15T19:18:59.107Z,1.52
2019-05-15T19:21:28.497Z,1.30
2019-05-15T19:23:58.377Z,1.30
2019-05-15T19:26:28.999Z,1.37
2019-05-15T19:28:59.212Z,1.60
2019-05-15T19:31:30.603Z,1.10
2019-05-15T19:33:59.360Z,1.30
2019-05-15T19:36:28.849Z,1.15
2019-05-15T19:38:57.981Z,1.10
2019-05-15T19:41:28.878Z,1.10
2019-05-15T19:43:58.190Z,1.10
2019-05-15T19:46:28.327Z,1.22
2019-05-15T19:48:58.131Z,1.27
2019-05-15T19:51:28.959Z,1.25
2019-05-15T19:53:58.785Z,1.10
2019-05-15T19:56:28.164Z,1.20
2019-05-15T19:58:58.213Z,1.30
2019-05-15T20:01:28.196Z,1.35
2019-05-15T20:03:58.574Z,1.20
2019-05-15T20:06:28.158Z,1.30
2019-05-15T20:08:58.696Z,1.05
2019-05-15T20:11:28.047Z,1.10
2019-05-15T20:13:58.317Z,1.17
2019-05-15T20:16:28.382Z,1.50
2019-05-15T20:18:58.193Z,1.52
2019-05-15T20:21:29.046Z,1.40
2019-05-15T20:23:58.228Z,1.57
2019-05-15T20:26:28.609Z,1.25
2019-05-15T20:28:58.283Z,1.42
2019-05-15T20:31:28.444Z,1.40
2019-05-15T20:34:05.640Z,1.25
2019-05-15T20:36:29.894Z,1.07
2019-05-15T20:38:59.385Z,1.72
2019-05-15T20:41:28.546Z,1.20
2019-05-15T20:43:58.279Z,1.00
2019-05-15T20:46:28.956Z,1.22
2019-05-15T20:48:58.263Z,1.25
2019-05-15T20:51:29.099Z,1.07
2019-05-15T20:53:58.356Z,1.20
2019-05-15T20:56:28.351Z,1.40
2019-05-15T20:58:58.288Z,1.35
2019-05-15T21:01:28.762Z,1.10
2019-05-15T21:03:59.506Z,1.20
2019-05-15T21:06:28.854Z,1.00
2019-05-15T21:08:58.045Z,1.22
2019-05-15T21:11:27.490Z,1.22
2019-05-15T21:13:58.141Z,1.10
2019-05-15T21:16:27.968Z,1.10
2019-05-15T21:18:57.788Z,1.02
2019-05-15T21:21:28.305Z,1.15
2019-05-15T21:23:58.007Z,1.02
2019-05-15T21:26:29.109Z,1.10
2019-05-15T21:28:58.732Z,1.10
2019-05-15T21:31:27.945Z,1.12
2019-05-15T21:33:58.907Z,1.10
2019-05-15T21:36:31.142Z,1.07
2019-05-15T21:38:59.028Z,0.90
2019-05-15T21:41:28.209Z,1.17
2019-05-15T21:43:59.315Z,1.00
2019-05-15T21:46:28.506Z,1.20
2019-05-15T21:49:00.609Z,1.10
2019-05-15T21:51:28.456Z,1.20
2019-05-15T21:53:58.184Z,1.10
2019-05-15T21:56:28.433Z,1.20
2019-05-15T21:58:58.189Z,1.30
2019-05-15T22:01:28.839Z,1.00
2019-05-15T22:03:58.899Z,1.20
2019-05-15T22:06:29.227Z,1.00
2019-05-15T22:08:58.733Z,1.20
2019-05-15T22:11:29.717Z,1.15
2019-05-15T22:13:58.831Z,1.22
2019-05-15T22:16:28.859Z,1.17
2019-05-15T22:18:58.328Z,1.17
2019-05-15T22:21:27.628Z,1.17
2019-05-15T22:23:59.850Z,1.30
2019-05-15T22:26:28.980Z,1.20
2019-05-15T22:28:58.486Z,1.20
2019-05-15T22:31:27.965Z,1.27
2019-05-15T22:33:58.521Z,1.27
2019-05-15T22:36:28.135Z,1.60
2019-05-15T22:38:59.379Z,1.07
2019-05-15T22:41:28.509Z,1.20
2019-05-15T22:43:57.678Z,1.50
2019-05-15T22:46:28.869Z,1.12
2019-05-15T22:48:59.054Z,1.20
2019-05-15T22:51:28.911Z,1.27
2019-05-15T22:53:58.233Z,1.40
2019-05-15T22:56:29.606Z,1.15
2019-05-15T22:58:58.473Z,1.60
2019-05-15T23:01:27.604Z,1.20
2019-05-15T23:03:58.338Z,1.10
2019-05-15T23:06:28.231Z,1.15
2019-05-15T23:08:58.141Z,1.40
2019-05-15T23:11:29.702Z,1.40
2019-05-15T23:13:58.680Z,1.30
2019-05-15T23:16:28.365Z,1.47
2019-05-15T23:18:58.828Z,1.30
2019-05-15T23:21:28.778Z,1.10
2019-05-15T23:23:58.113Z,1.30
2019-05-15T23:26:28.259Z,1.35
2019-05-15T23:28:58.542Z,1.20
2019-05-15T23:31:28.163Z,1.00
2019-05-15T23:33:57.507Z,1.27
2019-05-15T23:36:28.512Z,1.27
2019-05-15T23:38:58.398Z,1.30
2019-05-15T23:41:28.108Z,1.30
2019-05-15T23:43:57.303Z,1.30
2019-05-15T23:46:28.683Z,1.47
2019-05-15T23:48:58.838Z,1.80
2019-05-15T23:51:28.078Z,1.50
2019-05-15T23:53:58.692Z,1.50
2019-05-15T23:56:29.083Z,1.40
2019-05-15T23:58:58.497Z,1.12
